Time;durP1;ratioP1;P1;durP2;ratioP2;P2;SDS_P1;SDS_P2;PMS_P1;PMS_P2;Temp;Humidity;BMP_temperature;BMP_pressure;BME280_temperature;BME280_humidity;BME280_pressure;Samples;Min_cycle;Max_cycle;Signal;HPM_P1;HPM_P2
2022/10/25 00:00:02;;;;;;;2.97;2.67;;;11.60;99.90;;;;;;5085585;28;20190;-73
2022/10/25 00:02:35;;;;;;;2.80;2.60;;;11.70;99.90;;;;;;5090664;28;20189;-74
2022/10/25 00:05:01;;;;;;;5.03;3.63;;;11.80;99.90;;;;;;5083125;28;20199;-73
2022/10/25 00:07:27;;;;;;;3.03;2.03;;;11.80;99.90;;;;;;5087006;28;20193;-74
2022/10/25 00:09:52;;;;;;;2.63;2.25;;;11.90;99.90;;;;;;5087265;28;20193;-73
2022/10/25 00:12:18;;;;;;;2.63;2.42;;;11.80;99.90;;;;;;5083001;28;20198;-74
2022/10/25 00:14:44;;;;;;;2.45;2.08;;;11.90;99.90;;;;;;5084425;28;20277;-74
2022/10/25 00:17:09;;;;;;;3.03;2.75;;;11.80;99.90;;;;;;5086530;28;20683;-74
2022/10/25 00:19:35;;;;;;;4.97;2.85;;;11.80;99.90;;;;;;5090184;28;20252;-73
2022/10/25 00:22:01;;;;;;;2.83;2.63;;;11.70;99.90;;;;;;5066441;28;20575;-74
2022/10/25 00:24:27;;;;;;;2.13;2.03;;;11.70;99.90;;;;;;5056665;28;20263;-74
2022/10/25 00:26:52;;;;;;;2.97;2.47;;;11.70;99.90;;;;;;5067501;28;20183;-74
2022/10/25 00:29:18;;;;;;;4.43;2.40;;;11.80;99.90;;;;;;5069975;28;20233;-74
2022/10/25 00:31:44;;;;;;;2.40;2.25;;;11.80;99.90;;;;;;5070443;28;20174;-74
2022/10/25 00:34:09;;;;;;;2.35;2.08;;;11.90;99.90;;;;;;5066007;28;20202;-74
2022/10/25 00:36:35;;;;;;;2.40;2.20;;;11.90;99.90;;;;;;5087454;28;20194;-74
2022/10/25 00:39:01;;;;;;;2.67;2.30;;;11.90;99.90;;;;;;5081393;28;20282;-74
2022/10/25 00:41:32;;;;;;;2.60;2.40;;;12.00;99.90;;;;;;5087174;28;20182;-73
2022/10/25 00:44:36;;;;;;;3.17;2.70;;;12.00;99.90;;;;;;5088288;28;20269;-73
2022/10/25 00:47:09;;;;;;;3.95;2.40;;;12.00;99.90;;;;;;5080623;28;20657;-74
2022/10/25 00:49:35;;;;;;;3.80;2.72;;;11.90;99.90;;;;;;5084633;28;20661;-74
2022/10/25 00:52:05;;;;;;;2.60;2.40;;;11.70;99.90;;;;;;5084879;28;20171;-74
2022/10/25 00:54:37;;;;;;;3.10;2.53;;;11.60;99.90;;;;;;5074790;28;20207;-75
2022/10/25 00:57:20;;;;;;;2.33;2.10;;;11.60;99.90;;;;;;5070453;28;20174;-74
2022/10/25 00:59:46;;;;;;;2.80;2.10;;;11.50;99.90;;;;;;5065174;28;20166;-74
2022/10/25 01:02:13;;;;;;;2.78;2.35;;;11.30;99.90;;;;;;5067783;28;20179;-74
2022/10/25 01:04:39;;;;;;;2.42;2.10;;;11.30;99.90;;;;;;5070424;28;20167;-73
2022/10/25 01:07:06;;;;;;;3.10;2.58;;;11.20;99.90;;;;;;5080058;28;20193;-74
2022/10/25 01:09:34;;;;;;;2.47;2.35;;;11.10;99.90;;;;;;5077447;28;20266;-75
2022/10/25 01:11:59;;;;;;;3.65;2.30;;;10.90;99.90;;;;;;5065246;28;20194;-73
2022/10/25 01:14:26;;;;;;;3.00;2.45;;;10.90;99.90;;;;;;5080457;28;20182;-74
2022/10/25 01:17:25;;;;;;;2.15;2.05;;;10.90;99.90;;;;;;5085395;28;20265;-73
2022/10/25 01:20:27;;;;;;;2.60;2.40;;;10.90;99.90;;;;;;5061315;28;20301;-74
2022/10/25 01:23:14;;;;;;;2.95;2.17;;;10.80;99.90;;;;;;5075913;28;20226;-74
2022/10/25 01:26:04;;;;;;;5.47;2.03;;;10.80;99.90;;;;;;5062266;28;20196;-73
2022/10/25 01:28:48;;;;;;;5.03;2.40;;;10.70;99.90;;;;;;5060898;28;20681;-74
2022/10/25 01:31:26;;;;;;;2.92;2.22;;;10.50;99.90;;;;;;5076511;28;20241;-74
2022/10/25 01:34:28;;;;;;;2.95;2.00;;;10.50;99.90;;;;;;5082447;28;20201;-74
2022/10/25 01:37:13;;;;;;;2.85;2.65;;;10.50;99.90;;;;;;5074335;28;20260;-73
2022/10/25 01:39:48;;;;;;;3.10;2.28;;;10.50;99.90;;;;;;5056852;28;20183;-73
2022/10/25 01:42:24;;;;;;;2.30;2.10;;;10.40;99.90;;;;;;5071394;28;20680;-73
2022/10/25 01:44:53;;;;;;;6.50;2.55;;;10.40;99.90;;;;;;5073447;28;20682;-74
2022/10/25 01:47:56;;;;;;;4.55;2.42;;;10.40;99.90;;;;;;5076558;28;20184;-74
2022/10/25 01:50:27;;;;;;;2.65;2.45;;;10.40;99.90;;;;;;5058177;28;20199;-74
2022/10/25 01:52:54;;;;;;;3.42;2.55;;;10.40;99.90;;;;;;5064886;28;20199;-74
2022/10/25 01:55:24;;;;;;;2.55;2.45;;;10.40;99.90;;;;;;5063555;28;20219;-74
2022/10/25 01:58:02;;;;;;;2.92;2.63;;;10.40;99.90;;;;;;5064369;28;20179;-74
2022/10/25 02:00:32;;;;;;;3.17;2.88;;;10.50;99.90;;;;;;5063410;28;20207;-73
2022/10/25 02:03:17;;;;;;;2.78;2.40;;;10.50;99.90;;;;;;5060951;28;20175;-74
2022/10/25 02:06:14;;;;;;;3.00;2.05;;;10.50;99.90;;;;;;5067432;28;20293;-74
2022/10/25 02:09:10;;;;;;;3.63;3.00;;;10.60;99.90;;;;;;5072827;28;20187;-74
2022/10/25 02:11:36;;;;;;;3.55;3.22;;;10.60;99.90;;;;;;5068360;28;20592;-74
2022/10/25 02:14:29;;;;;;;4.10;3.38;;;10.70;99.90;;;;;;5067705;28;20238;-74
2022/10/25 02:17:13;;;;;;;5.57;3.38;;;10.60;99.90;;;;;;5070626;28;20204;-74
2022/10/25 02:19:48;;;;;;;3.22;2.92;;;10.70;99.90;;;;;;5070341;28;20225;-74
2022/10/25 02:22:17;;;;;;;5.25;3.25;;;10.80;99.90;;;;;;5067055;28;20241;-74
2022/10/25 02:24:45;;;;;;;3.75;3.08;;;10.70;99.90;;;;;;5071384;28;20199;-74
2022/10/25 02:27:13;;;;;;;3.70;3.30;;;10.70;99.90;;;;;;5072857;28;20220;-74
2022/10/25 02:29:40;;;;;;;3.50;3.20;;;10.50;99.90;;;;;;5074286;28;20646;-74
2022/10/25 02:32:06;;;;;;;4.22;3.08;;;10.50;99.90;;;;;;5072472;28;20254;-79
2022/10/25 02:34:32;;;;;;;4.18;3.33;;;10.50;99.90;;;;;;5075182;28;20266;-78
2022/10/25 02:36:58;;;;;;;5.47;3.08;;;10.40;99.90;;;;;;5091407;28;20182;-76
2022/10/25 02:39:26;;;;;;;3.20;3.00;;;10.50;99.90;;;;;;5082141;28;20175;-75
2022/10/25 02:41:52;;;;;;;3.20;3.00;;;10.60;99.90;;;;;;5068080;28;20267;-75
2022/10/25 02:44:18;;;;;;;4.28;2.95;;;10.60;99.90;;;;;;5074543;28;20666;-75
2022/10/25 02:46:44;;;;;;;3.53;3.15;;;10.60;99.90;;;;;;5081441;28;20217;-74
2022/10/25 02:49:10;;;;;;;6.40;3.60;;;10.60;99.90;;;;;;5070571;28;20667;-74
2022/10/25 02:51:35;;;;;;;3.65;3.35;;;10.50;99.90;;;;;;5070856;28;20175;-73
2022/10/25 02:54:01;;;;;;;4.60;3.55;;;10.30;99.90;;;;;;5092146;28;20191;-73
2022/10/25 02:56:27;;;;;;;3.45;2.97;;;10.20;99.90;;;;;;5085051;28;20198;-74
2022/10/25 02:58:56;;;;;;;4.18;3.08;;;10.20;99.90;;;;;;5082923;28;20246;-74
2022/10/25 03:01:22;;;;;;;3.28;3.08;;;10.10;99.90;;;;;;5090250;28;20177;-74
2022/10/25 03:03:48;;;;;;;3.17;2.97;;;10.00;99.90;;;;;;5086588;28;20764;-74
2022/10/25 03:06:14;;;;;;;4.03;2.60;;;10.00;99.90;;;;;;5088952;28;20202;-74
2022/10/25 03:08:40;;;;;;;3.95;3.55;;;9.90;99.90;;;;;;5060228;28;20192;-74
2022/10/25 03:11:07;;;;;;;6.55;3.50;;;9.90;99.90;;;;;;5087291;28;20232;-73
2022/10/25 03:13:34;;;;;;;15.63;3.95;;;9.80;99.90;;;;;;5074574;28;20213;-74
2022/10/25 03:15:59;;;;;;;3.65;3.33;;;9.70;99.90;;;;;;5084465;28;20194;-74
2022/10/25 03:18:25;;;;;;;3.97;3.67;;;9.70;99.90;;;;;;5090782;28;20641;-74
2022/10/25 03:20:51;;;;;;;3.08;2.85;;;9.70;99.90;;;;;;5071793;28;20261;-73
2022/10/25 03:23:17;;;;;;;4.07;3.22;;;9.60;99.90;;;;;;5079886;28;20183;-75
2022/10/25 03:25:43;;;;;;;3.20;2.90;;;9.50;99.90;;;;;;5075843;28;20215;-73
2022/10/25 03:28:09;;;;;;;3.97;3.58;;;9.60;99.90;;;;;;5085298;28;20182;-73
2022/10/25 03:30:35;;;;;;;3.45;2.95;;;9.50;99.90;;;;;;5089614;28;20261;-74
2022/10/25 03:33:00;;;;;;;4.07;3.55;;;9.50;99.90;;;;;;5086278;28;20190;-74
2022/10/25 03:35:26;;;;;;;3.33;2.85;;;9.40;99.90;;;;;;5088786;28;20190;-74
2022/10/25 03:37:53;;;;;;;3.65;3.35;;;9.40;99.90;;;;;;5071815;28;20658;-74
2022/10/25 03:40:19;;;;;;;3.42;3.10;;;9.40;99.90;;;;;;5069545;28;20179;-74
2022/10/25 03:42:45;;;;;;;3.83;3.45;;;9.40;99.90;;;;;;5068382;28;20179;-74
2022/10/25 03:45:11;;;;;;;3.53;3.22;;;9.40;99.90;;;;;;5062864;28;20241;-74
2022/10/25 03:47:38;;;;;;;3.80;3.33;;;9.40;99.90;;;;;;5068027;28;20192;-73
2022/10/25 03:50:05;;;;;;;4.40;3.58;;;9.40;99.90;;;;;;5069653;28;20301;-73
2022/10/25 03:52:31;;;;;;;5.70;4.22;;;9.40;99.90;;;;;;5070011;28;20206;-73
2022/10/25 03:54:56;;;;;;;4.05;3.65;;;9.40;99.90;;;;;;5061471;28;20569;-73
2022/10/25 03:57:22;;;;;;;3.80;3.60;;;9.40;99.90;;;;;;5076443;28;20175;-74
2022/10/25 03:59:48;;;;;;;5.00;4.05;;;9.50;99.90;;;;;;5084896;28;20241;-74
2022/10/25 04:02:14;;;;;;;3.97;3.63;;;9.40;99.90;;;;;;5087004;28;20589;-74
2022/10/25 04:04:40;;;;;;;4.40;4.00;;;9.40;99.90;;;;;;5075646;28;20270;-74
2022/10/25 04:07:06;;;;;;;4.03;3.72;;;9.20;99.90;;;;;;5083920;28;20210;-74
2022/10/25 04:09:32;;;;;;;4.43;3.88;;;9.20;99.90;;;;;;5085034;28;20174;-74
2022/10/25 04:11:57;;;;;;;3.80;3.50;;;9.20;99.90;;;;;;5085139;28;20182;-74
2022/10/25 04:14:23;;;;;;;5.32;4.82;;;9.20;99.90;;;;;;5064824;28;20549;-75
2022/10/25 04:16:48;;;;;;;5.05;4.55;;;9.20;99.90;;;;;;5072752;28;20214;-74
2022/10/25 04:19:14;;;;;;;8.40;4.90;;;9.30;99.90;;;;;;5072585;28;20183;-74
2022/10/25 04:21:40;;;;;;;5.78;4.00;;;9.40;99.90;;;;;;5075687;28;20231;-74
2022/10/25 04:24:06;;;;;;;5.10;4.13;;;9.30;99.90;;;;;;5087567;28;20717;-74
2022/10/25 04:26:33;;;;;;;6.88;3.90;;;9.30;99.90;;;;;;5086025;28;20221;-74
2022/10/25 04:28:59;;;;;;;4.53;4.10;;;9.30;99.90;;;;;;5081245;28;20171;-74
2022/10/25 04:31:25;;;;;;;5.03;3.95;;;9.20;99.90;;;;;;5077662;28;20249;-74
2022/10/25 04:33:52;;;;;;;4.65;4.18;;;9.10;99.90;;;;;;5072807;28;20576;-74
2022/10/25 04:36:18;;;;;;;4.00;3.70;;;9.10;99.90;;;;;;5087652;28;20190;-74
2022/10/25 04:38:47;;;;;;;4.32;3.92;;;9.10;99.90;;;;;;5083735;28;20285;-74
2022/10/25 04:41:13;;;;;;;4.93;4.20;;;9.10;99.90;;;;;;5082463;28;20175;-74
2022/10/25 04:43:39;;;;;;;5.20;4.47;;;9.10;99.90;;;;;;5077414;28;20262;-73
2022/10/25 04:46:05;;;;;;;5.18;4.47;;;9.00;99.90;;;;;;5089235;28;20665;-74
2022/10/25 04:48:30;;;;;;;4.93;4.20;;;9.00;99.90;;;;;;5086872;28;20269;-75
2022/10/25 04:50:59;;;;;;;5.07;4.57;;;9.10;99.90;;;;;;5068150;28;20254;-74
2022/10/25 04:53:24;;;;;;;5.68;4.70;;;9.10;99.90;;;;;;5065085;28;20207;-74
2022/10/25 04:56:04;;;;;;;5.30;4.85;;;9.20;99.90;;;;;;5066158;28;21481;-73
2022/10/25 04:58:30;;;;;;;6.45;4.68;;;9.10;99.90;;;;;;5062603;28;20569;-74
2022/10/25 05:01:06;;;;;;;6.68;5.13;;;9.10;99.90;;;;;;5062079;28;20177;-73
2022/10/25 05:03:33;;;;;;;5.05;4.63;;;9.20;99.90;;;;;;5064559;28;20179;-73
2022/10/25 05:06:26;;;;;;;4.88;4.47;;;9.20;99.90;;;;;;5066613;28;20195;-74
2022/10/25 05:08:52;;;;;;;5.43;4.68;;;9.20;99.90;;;;;;5067985;28;20194;-73
2022/10/25 05:11:20;;;;;;;5.93;4.60;;;9.30;99.90;;;;;;5072380;28;20188;-74
2022/10/25 05:13:46;;;;;;;5.53;4.30;;;9.10;99.90;;;;;;5069107;28;20199;-74
2022/10/25 05:16:19;;;;;;;6.43;4.75;;;9.10;99.90;;;;;;5063479;28;20567;-74
2022/10/25 05:18:45;;;;;;;7.78;5.40;;;9.10;99.90;;;;;;5064538;28;20179;-75
2022/10/25 05:21:12;;;;;;;6.30;4.55;;;9.20;99.90;;;;;;5060212;28;20175;-75
2022/10/25 05:23:38;;;;;;;4.93;4.25;;;9.20;99.90;;;;;;5061299;28;20192;-74
2022/10/25 05:26:04;;;;;;;5.28;4.60;;;9.30;99.90;;;;;;5075307;28;20680;-74
2022/10/25 05:28:31;;;;;;;5.05;3.78;;;9.30;99.90;;;;;;5068043;28;20198;-74
2022/10/25 05:30:56;;;;;;;5.55;4.05;;;9.20;99.90;;;;;;5073411;28;20233;-74
2022/10/25 05:33:22;;;;;;;5.22;4.65;;;9.20;99.90;;;;;;5073265;28;20202;-74
2022/10/25 05:35:47;;;;;;;6.20;5.13;;;9.20;99.90;;;;;;5074110;28;20207;-74
2022/10/25 05:38:13;;;;;;;8.85;4.60;;;9.30;99.90;;;;;;5077815;28;20266;-71
2022/10/25 05:40:39;;;;;;;6.30;4.28;;;9.20;99.90;;;;;;5070831;28;20642;-72
2022/10/25 05:43:04;;;;;;;6.78;5.32;;;9.20;99.90;;;;;;5078014;28;20209;-72
2022/10/25 05:45:30;;;;;;;6.97;5.47;;;9.20;99.90;;;;;;5063083;28;20218;-72
2022/10/25 05:47:56;;;;;;;6.07;5.55;;;9.10;99.90;;;;;;5063814;28;20194;-72
2022/10/25 05:50:21;;;;;;;6.28;5.20;;;9.00;99.90;;;;;;5063142;28;20172;-71
2022/10/25 05:52:47;;;;;;;8.20;5.50;;;9.10;99.90;;;;;;5065088;28;20207;-71
2022/10/25 05:55:12;;;;;;;6.43;5.40;;;9.10;99.90;;;;;;5062056;28;20231;-71
2022/10/25 05:57:38;;;;;;;5.63;4.95;;;9.10;99.90;;;;;;5062007;28;20172;-71
2022/10/25 06:00:04;;;;;;;8.98;6.72;;;9.10;99.90;;;;;;5062319;28;20206;-72
2022/10/25 06:02:30;;;;;;;10.25;6.22;;;9.00;99.90;;;;;;5061910;28;20175;-72
2022/10/25 06:04:56;;;;;;;9.85;6.22;;;9.10;99.90;;;;;;5058551;28;20736;-72
2022/10/25 06:07:21;;;;;;;10.57;6.88;;;9.20;99.90;;;;;;5078216;28;20190;-72
2022/10/25 06:09:47;;;;;;;8.18;6.03;;;9.20;99.90;;;;;;5062831;28;20180;-72
2022/10/25 06:12:12;;;;;;;7.70;6.40;;;9.00;99.90;;;;;;5059383;28;20234;-72
2022/10/25 06:14:38;;;;;;;7.32;6.50;;;9.00;99.90;;;;;;5062727;28;20190;-74
2022/10/25 06:17:03;;;;;;;7.70;6.25;;;8.90;99.90;;;;;;5068726;28;20269;-73
2022/10/25 06:19:29;;;;;;;8.60;7.32;;;8.90;99.90;;;;;;5074504;28;20523;-72
2022/10/25 06:21:55;;;;;;;10.23;6.82;;;8.90;99.90;;;;;;5063810;28;20256;-73
2022/10/25 06:24:21;;;;;;;8.48;6.35;;;9.00;99.90;;;;;;5079887;28;20183;-73
2022/10/25 06:26:46;;;;;;;7.07;6.38;;;9.20;99.90;;;;;;5074320;28;21113;-73
2022/10/25 06:29:12;;;;;;;7.00;6.38;;;9.20;99.90;;;;;;5073987;28;20191;-72
2022/10/25 06:31:37;;;;;;;6.85;6.20;;;9.10;99.90;;;;;;5067170;28;20179;-72
2022/10/25 06:34:03;;;;;;;6.30;5.72;;;9.20;99.90;;;;;;5068874;28;20674;-73
2022/10/25 06:36:30;;;;;;;8.82;6.28;;;9.20;99.90;;;;;;5065964;28;20681;-73
2022/10/25 06:38:55;;;;;;;7.90;6.70;;;9.10;99.90;;;;;;5067064;28;20245;-74
2022/10/25 06:41:23;;;;;;;11.20;7.28;;;9.20;99.90;;;;;;5074465;28;20645;-73
2022/10/25 06:43:50;;;;;;;10.95;6.30;;;9.30;99.90;;;;;;5073894;28;20189;-73
2022/10/25 06:46:32;;;;;;;6.75;6.10;;;9.40;99.90;;;;;;5064018;28;20752;-73
2022/10/25 06:48:59;;;;;;;8.20;6.15;;;9.40;99.90;;;;;;5073418;28;20208;-73
2022/10/25 06:51:27;;;;;;;7.00;6.40;;;9.50;99.90;;;;;;5080619;28;20213;-72
2022/10/25 06:53:58;;;;;;;8.18;6.55;;;9.60;99.90;;;;;;5079249;28;20701;-73
2022/10/25 06:56:25;;;;;;;7.78;6.55;;;9.70;99.90;;;;;;5061667;28;20223;-74
2022/10/25 06:58:50;;;;;;;6.97;6.10;;;9.60;99.90;;;;;;5062202;28;20176;-73
2022/10/25 07:01:18;;;;;;;6.90;6.00;;;9.60;99.90;;;;;;5066390;28;20187;-73
2022/10/25 07:03:44;;;;;;;7.53;6.00;;;9.60;99.90;;;;;;5073390;28;20175;-73
2022/10/25 07:06:22;;;;;;;6.43;5.80;;;9.70;99.90;;;;;;5072024;28;20192;-73
2022/10/25 07:08:55;;;;;;;6.47;5.88;;;9.70;99.90;;;;;;5060514;28;20223;-73
2022/10/25 07:11:22;;;;;;;6.60;6.00;;;9.90;99.90;;;;;;5068199;28;20649;-73
2022/10/25 07:13:47;;;;;;;6.43;5.75;;;10.00;99.90;;;;;;5064753;28;20219;-73
2022/10/25 07:16:16;;;;;;;7.57;6.20;;;10.00;99.90;;;;;;5074347;28;20198;-72
2022/10/25 07:18:42;;;;;;;7.03;5.40;;;10.20;99.90;;;;;;5067353;28;20730;-72
2022/10/25 07:21:27;;;;;;;7.10;6.43;;;10.40;99.90;;;;;;5062064;28;20188;-77
2022/10/25 07:23:53;;;;;;;9.18;5.60;;;10.70;99.90;;;;;;5077718;28;20191;-73
2022/10/25 07:26:24;;;;;;;5.07;4.57;;;10.80;99.90;;;;;;5068803;28;20229;-74
2022/10/25 07:28:52;;;;;;;4.32;3.92;;;10.80;99.90;;;;;;5068335;28;20183;-72
2022/10/25 07:31:23;;;;;;;5.93;4.15;;;10.90;99.90;;;;;;5072234;28;20195;-73
2022/10/25 07:33:51;;;;;;;7.03;4.95;;;10.80;99.90;;;;;;5082633;28;20195;-74
2022/10/25 07:36:19;;;;;;;4.80;3.80;;;10.90;99.90;;;;;;5072893;28;20221;-77
2022/10/25 07:38:46;;;;;;;4.35;4.05;;;10.80;99.90;;;;;;5083527;28;20171;-74
2022/10/25 07:41:11;;;;;;;5.35;3.65;;;10.80;99.90;;;;;;5065063;28;20233;-72
2022/10/25 07:43:37;;;;;;;4.30;4.00;;;10.80;99.90;;;;;;5076973;28;20186;-72
2022/10/25 07:46:04;;;;;;;3.78;3.50;;;10.80;99.90;;;;;;5075634;28;20210;-72
2022/10/25 07:48:30;;;;;;;4.25;3.85;;;10.80;99.90;;;;;;5072903;28;20194;-74
2022/10/25 07:50:56;;;;;;;5.68;4.05;;;10.90;99.90;;;;;;5073342;28;20190;-73
2022/10/25 07:53:22;;;;;;;4.13;3.20;;;11.00;99.90;;;;;;5077144;28;20607;-75
2022/10/25 07:55:51;;;;;;;3.75;3.45;;;11.00;99.90;;;;;;5087288;28;20215;-75
2022/10/25 07:58:17;;;;;;;3.70;3.40;;;11.10;99.90;;;;;;5059121;28;20174;-71
2022/10/25 08:00:42;;;;;;;4.65;3.60;;;11.20;99.90;;;;;;5072171;28;20177;-73
2022/10/25 08:03:08;;;;;;;3.47;3.17;;;11.10;99.90;;;;;;5067180;28;20262;-73
2022/10/25 08:05:34;;;;;;;4.10;3.70;;;11.20;99.90;;;;;;5072977;28;20248;-73
2022/10/25 08:07:59;;;;;;;4.00;3.35;;;11.30;99.90;;;;;;5070556;28;20175;-73
2022/10/25 08:10:25;;;;;;;3.67;3.38;;;11.40;99.90;;;;;;5074157;28;20238;-76
2022/10/25 08:12:54;;;;;;;3.70;3.25;;;11.70;99.90;;;;;;5073419;28;20199;-78
2022/10/25 08:15:19;;;;;;;4.63;3.15;;;11.80;99.90;;;;;;5069771;28;20207;-72
2022/10/25 08:17:45;;;;;;;3.63;2.97;;;12.00;99.90;;;;;;5073787;28;20179;-73
2022/10/25 08:20:13;;;;;;;4.60;3.17;;;12.20;99.90;;;;;;5070812;28;20282;-73
2022/10/25 08:22:38;;;;;;;3.30;3.08;;;12.40;99.90;;;;;;5081433;28;20187;-74
2022/10/25 08:25:05;;;;;;;4.22;2.65;;;12.40;99.90;;;;;;5078520;28;20336;-74
2022/10/25 08:27:31;;;;;;;3.05;2.85;;;12.30;99.90;;;;;;5070819;28;20297;-73
2022/10/25 08:29:57;;;;;;;3.95;2.40;;;12.40;99.90;;;;;;5056784;28;20200;-72
2022/10/25 08:32:22;;;;;;;3.05;2.80;;;12.50;99.90;;;;;;5063889;28;20271;-73
2022/10/25 08:34:48;;;;;;;2.97;2.78;;;12.50;99.90;;;;;;5082764;28;20298;-73
2022/10/25 08:37:13;;;;;;;3.78;3.20;;;12.60;99.90;;;;;;5083996;28;20742;-73
2022/10/25 08:39:39;;;;;;;4.93;3.10;;;12.70;99.90;;;;;;5088638;28;20174;-73
2022/10/25 08:42:05;;;;;;;2.88;2.67;;;12.80;99.90;;;;;;5074203;28;20290;-73
2022/10/25 08:44:49;;;;;;;4.50;2.58;;;12.80;99.90;;;;;;5078484;28;20202;-74
2022/10/25 08:47:25;;;;;;;3.10;2.80;;;12.80;99.90;;;;;;5073825;28;20646;-73
2022/10/25 08:50:13;;;;;;;5.53;3.00;;;12.90;99.90;;;;;;5077545;28;20553;-73
2022/10/25 08:52:44;;;;;;;3.08;2.63;;;13.10;99.90;;;;;;5079634;28;20669;-73
2022/10/25 08:55:35;;;;;;;8.52;3.20;;;13.20;99.90;;;;;;5080922;28;20255;-73
2022/10/25 08:58:04;;;;;;;3.35;3.05;;;13.40;99.90;;;;;;5065582;28;20219;-73
2022/10/25 09:00:36;;;;;;;3.45;3.15;;;13.40;99.90;;;;;;5076776;28;20189;-73
2022/10/25 09:03:03;;;;;;;4.10;3.35;;;13.80;99.90;;;;;;5084508;28;20174;-73
2022/10/25 09:05:52;;;;;;;4.28;3.00;;;14.80;99.90;;;;;;5086191;28;20726;-74
2022/10/25 09:08:25;;;;;;;2.75;2.30;;;15.80;99.90;;;;;;5070678;28;20262;-74
2022/10/25 09:11:15;;;;;;;2.25;2.05;;;17.80;99.90;;;;;;5078853;28;20179;-73
2022/10/25 09:14:03;;;;;;;3.15;1.80;;;20.40;99.90;;;;;;5072188;28;20692;-73
2022/10/25 09:16:52;;;;;;;2.28;2.08;;;22.50;99.90;;;;;;5086255;28;20290;-75
2022/10/25 09:19:24;;;;;;;3.63;2.05;;;24.10;99.90;;;;;;5070454;28;20273;-75
2022/10/25 09:22:00;;;;;;;2.67;1.90;;;25.40;99.90;;;;;;5087348;28;20183;-75
2022/10/25 09:24:48;;;;;;;1.80;1.70;;;26.50;99.90;;;;;;5085836;28;20219;-75
2022/10/25 09:27:41;;;;;;;2.10;1.60;;;27.60;99.90;;;;;;5077398;28;20205;-75
2022/10/25 09:30:09;;;;;;;6.60;1.65;;;28.60;95.60;;;;;;5077491;28;20244;-75
2022/10/25 09:32:45;;;;;;;1.58;1.48;;;28.50;93.50;;;;;;5077551;28;20554;-75
2022/10/25 09:35:16;;;;;;;1.92;1.77;;;28.60;91.60;;;;;;5075529;28;20191;-75
2022/10/25 09:37:58;;;;;;;1.83;1.70;;;28.70;88.00;;;;;;5084998;28;20178;-75
2022/10/25 09:40:42;;;;;;;2.42;1.60;;;28.80;85.80;;;;;;5084453;28;20171;-75
2022/10/25 09:43:16;;;;;;;5.97;2.33;;;28.90;85.10;;;;;;5068326;28;20231;-75
2022/10/25 09:45:44;;;;;;;3.97;1.90;;;29.00;83.60;;;;;;5081722;28;20211;-74
2022/10/25 09:48:30;;;;;;;2.17;1.60;;;28.80;82.10;;;;;;5076710;28;20596;-74
2022/10/25 09:51:23;;;;;;;1.80;1.70;;;29.00;81.20;;;;;;5080267;28;20218;-74
2022/10/25 09:53:50;;;;;;;2.38;1.70;;;28.90;79.80;;;;;;5077345;28;20198;-74
2022/10/25 09:56:16;;;;;;;1.70;1.60;;;28.50;78.50;;;;;;5074139;28;20560;-74
2022/10/25 09:58:46;;;;;;;2.35;1.45;;;28.60;79.60;;;;;;5068378;28;20181;-75
2022/10/25 10:01:27;;;;;;;2.25;1.58;;;28.80;79.50;;;;;;5075989;28;20236;-75
2022/10/25 10:03:55;;;;;;;2.45;1.40;;;29.00;77.70;;;;;;5088131;28;20214;-75
2022/10/25 10:06:25;;;;;;;1.63;1.50;;;29.20;76.10;;;;;;5084083;28;20203;-75
2022/10/25 10:08:56;;;;;;;1.60;1.50;;;29.20;75.00;;;;;;5074960;28;20187;-75
2022/10/25 10:11:22;;;;;;;2.13;1.55;;;29.10;74.60;;;;;;5081001;28;20589;-76
2022/10/25 10:14:00;;;;;;;1.48;1.48;;;29.40;75.10;;;;;;5082993;28;20207;-76
2022/10/25 10:16:30;;;;;;;1.98;1.63;;;29.50;74.60;;;;;;5088973;28;20218;-76
2022/10/25 10:19:20;;;;;;;8.07;1.45;;;29.50;73.20;;;;;;5077341;28;20248;-76
2022/10/25 10:21:55;;;;;;;1.95;1.63;;;29.30;72.30;;;;;;5089042;28;20632;-76
2022/10/25 10:24:26;;;;;;;1.63;1.52;;;29.30;72.50;;;;;;5083023;28;20174;-75
2022/10/25 10:26:56;;;;;;;3.20;1.45;;;29.70;71.60;;;;;;5075451;28;20266;-76
2022/10/25 10:29:52;;;;;;;1.67;1.58;;;29.90;71.00;;;;;;5079786;28;20200;-76
2022/10/25 10:32:32;;;;;;;1.27;1.13;;;30.20;68.10;;;;;;5075767;28;20190;-77
2022/10/25 10:34:58;;;;;;;2.42;1.40;;;30.10;69.40;;;;;;5082747;28;20190;-76
2022/10/25 10:37:26;;;;;;;4.95;1.67;;;29.90;69.60;;;;;;5082352;28;20615;-76
2022/10/25 10:39:57;;;;;;;1.50;1.40;;;30.10;68.40;;;;;;5087901;28;20247;-76
2022/10/25 10:42:30;;;;;;;1.83;1.70;;;30.00;66.20;;;;;;5076808;28;20179;-76
2022/10/25 10:45:08;;;;;;;1.85;1.67;;;29.70;68.00;;;;;;5090924;28;20768;-75
2022/10/25 10:47:44;;;;;;;1.60;1.50;;;30.10;68.50;;;;;;5083246;28;20187;-76
2022/10/25 10:50:22;;;;;;;2.08;1.55;;;30.70;65.60;;;;;;5073365;28;20172;-76
2022/10/25 10:52:57;;;;;;;2.38;1.55;;;31.40;64.30;;;;;;5077058;28;20239;-76
2022/10/25 10:55:32;;;;;;;3.00;1.80;;;31.70;63.10;;;;;;5090409;28;20280;-77
2022/10/25 10:58:24;;;;;;;2.75;1.50;;;32.30;61.70;;;;;;5086958;28;20177;-73
2022/10/25 11:01:01;;;;;;;3.30;1.90;;;32.60;59.30;;;;;;5070133;28;20574;-74
2022/10/25 11:03:41;;;;;;;3.17;1.80;;;33.60;59.80;;;;;;5088080;28;20253;-74
2022/10/25 11:06:10;;;;;;;1.33;1.23;;;33.90;57.10;;;;;;5076750;28;20197;-74
2022/10/25 11:08:35;;;;;;;1.77;1.50;;;33.80;56.60;;;;;;5081859;28;20189;-73
2022/10/25 11:11:21;;;;;;;1.80;1.70;;;33.50;56.90;;;;;;5082917;28;20186;-74
2022/10/25 11:13:55;;;;;;;3.08;2.25;;;33.80;57.50;;;;;;5081749;28;20214;-76
2022/10/25 11:16:46;;;;;;;3.38;1.27;;;33.80;55.50;;;;;;5088996;28;20278;-76
2022/10/25 11:19:29;;;;;;;1.88;1.55;;;34.10;54.20;;;;;;5066569;28;20644;-76
2022/10/25 11:22:10;;;;;;;1.17;1.17;;;34.00;54.50;;;;;;5084946;28;20180;-76
2022/10/25 11:24:52;;;;;;;3.42;1.50;;;34.20;54.20;;;;;;5081894;28;20270;-77
2022/10/25 11:27:36;;;;;;;1.88;1.50;;;34.30;53.60;;;;;;5075957;28;20199;-74
2022/10/25 11:30:18;;;;;;;2.22;1.10;;;34.50;53.10;;;;;;5071722;28;20601;-74
2022/10/25 11:33:12;;;;;;;1.85;1.45;;;34.90;52.60;;;;;;5080503;28;20645;-74
2022/10/25 11:35:58;;;;;;;3.20;1.58;;;34.60;52.70;;;;;;5076472;28;20203;-74
2022/10/25 11:38:54;;;;;;;1.35;1.23;;;35.20;52.50;;;;;;5088899;28;20174;-74
2022/10/25 11:41:31;;;;;;;1.40;1.10;;;35.60;51.90;;;;;;5070805;28;20262;-75
2022/10/25 11:44:18;;;;;;;1.33;1.23;;;36.20;50.00;;;;;;5079308;28;20273;-73
2022/10/25 11:46:55;;;;;;;2.60;1.17;;;36.30;48.80;;;;;;5087591;28;20632;-74
2022/10/25 11:49:47;;;;;;;1.45;0.75;;;36.20;49.00;;;;;;5074368;28;20183;-74
2022/10/25 11:52:53;;;;;;;1.08;0.95;;;35.90;48.20;;;;;;5075289;28;20183;-74
2022/10/25 11:55:26;;;;;;;1.75;0.80;;;35.80;49.00;;;;;;5079418;28;20701;-74
2022/10/25 11:58:07;;;;;;;2.28;1.60;;;35.30;49.10;;;;;;5074524;28;20176;-74
2022/10/25 12:00:35;;;;;;;1.75;1.20;;;34.80;50.00;;;;;;5084203;28;20200;-74
2022/10/25 12:03:14;;;;;;;1.35;1.00;;;35.40;49.90;;;;;;5084879;28;20178;-74
2022/10/25 12:06:07;;;;;;;3.13;1.38;;;34.90;50.20;;;;;;5073238;28;20561;-74
2022/10/25 12:08:35;;;;;;;1.77;1.00;;;34.60;51.10;;;;;;5073056;28;20187;-73
2022/10/25 12:11:09;;;;;;;2.17;1.13;;;34.70;50.80;;;;;;5089406;28;20651;-74
2022/10/25 12:13:40;;;;;;;1.15;0.90;;;35.60;50.20;;;;;;5075833;28;20221;-74
2022/10/25 12:16:11;;;;;;;2.60;1.30;;;35.80;49.30;;;;;;5084556;28;20699;-74
2022/10/25 12:19:04;;;;;;;1.63;1.35;;;36.00;49.10;;;;;;5078767;28;20244;-74
2022/10/25 12:21:40;;;;;;;2.20;1.65;;;35.10;49.20;;;;;;5080801;28;20166;-73
2022/10/25 12:24:13;;;;;;;2.25;0.93;;;34.70;49.90;;;;;;5072791;28;20181;-73
2022/10/25 12:26:40;;;;;;;2.03;1.20;;;33.40;50.50;;;;;;5073147;28;20230;-75
2022/10/25 12:29:13;;;;;;;1.95;1.40;;;31.80;53.70;;;;;;5082315;28;20234;-75
2022/10/25 12:31:55;;;;;;;3.35;1.42;;;31.00;55.30;;;;;;5071596;28;20704;-75
2022/10/25 12:34:34;;;;;;;2.67;1.25;;;30.60;55.80;;;;;;5082193;28;20214;-75
2022/10/25 12:37:05;;;;;;;3.80;1.75;;;30.30;56.20;;;;;;5084532;28;20695;-75
2022/10/25 12:39:39;;;;;;;1.88;0.93;;;30.30;56.90;;;;;;5088916;28;20320;-75
2022/10/25 12:42:17;;;;;;;4.10;1.58;;;30.30;57.40;;;;;;5073977;28;20205;-75
2022/10/25 12:44:55;;;;;;;4.03;2.15;;;29.30;62.70;;;;;;5083006;28;20197;-74
2022/10/25 12:47:35;;;;;;;3.28;1.52;;;27.40;94.50;;;;;;5072262;28;20327;-75
2022/10/25 12:50:06;;;;;;;3.58;1.85;;;24.90;91.00;;;;;;5100825;28;20231;-75
2022/10/25 12:52:57;;;;;;;6.60;1.70;;;23.40;99.90;;;;;;5081932;28;20190;-75
2022/10/25 12:55:25;;;;;;;2.72;1.30;;;22.10;99.90;;;;;;5081534;28;20746;-75
2022/10/25 12:58:16;;;;;;;2.03;1.42;;;21.20;99.90;;;;;;5072102;28;20190;-76
2022/10/25 13:01:04;;;;;;;1.63;1.48;;;21.00;99.90;;;;;;5083772;28;20191;-75
2022/10/25 13:03:33;;;;;;;2.97;1.40;;;21.60;99.90;;;;;;5082295;28;20179;-74
2022/10/25 13:06:01;;;;;;;1.60;1.13;;;21.30;99.90;;;;;;5075412;28;20287;-75
2022/10/25 13:08:28;;;;;;;3.38;1.13;;;20.60;99.90;;;;;;5073124;28;20176;-75
2022/10/25 13:11:00;;;;;;;1.77;1.40;;;20.00;99.90;;;;;;5084563;28;20220;-75
2022/10/25 13:13:29;;;;;;;2.25;1.30;;;19.50;99.90;;;;;;5076108;28;20198;-75